sensor_id;sensor_type;location;lat;lon;timestamp;pressure;altitude;pressure_sealevel;temperature;humidity
73297;BME280;61524;50.938;11.396;2023-06-22T00:01:02;99335.88;;;20.67;97.34
73297;BME280;61524;50.938;11.396;2023-06-22T00:03:28;99332.84;;;20.69;96.54
73297;BME280;61524;50.938;11.396;2023-06-22T00:05:53;99334.28;;;20.66;96.14
73297;BME280;61524;50.938;11.396;2023-06-22T00:08:19;99337.44;;;20.46;97.40
73297;BME280;61524;50.938;11.396;2023-06-22T00:10:46;99333.88;;;20.32;97.89
73297;BME280;61524;50.938;11.396;2023-06-22T00:13:12;99336.13;;;20.30;97.75
73297;BME280;61524;50.938;11.396;2023-06-22T00:15:40;99344.16;;;20.21;97.78
73297;BME280;61524;50.938;11.396;2023-06-22T00:18:07;99339.34;;;20.18;97.84
73297;BME280;61524;50.938;11.396;2023-06-22T00:20:32;99349.00;;;20.24;98.17
73297;BME280;61524;50.938;11.396;2023-06-22T00:23:01;99345.47;;;20.24;97.14
73297;BME280;61524;50.938;11.396;2023-06-22T00:25:28;99350.38;;;20.22;97.76
73297;BME280;61524;50.938;11.396;2023-06-22T00:27:53;99348.59;;;20.03;97.82
73297;BME280;61524;50.938;11.396;2023-06-22T00:30:19;99336.72;;;19.99;98.05
73297;BME280;61524;50.938;11.396;2023-06-22T00:32:45;99340.16;;;19.91;97.87
73297;BME280;61524;50.938;11.396;2023-06-22T00:35:12;99335.28;;;19.74;98.76
73297;BME280;61524;50.938;11.396;2023-06-22T00:37:38;99340.34;;;19.81;98.70
73297;BME280;61524;50.938;11.396;2023-06-22T00:40:08;99350.56;;;19.84;98.90
73297;BME280;61524;50.938;11.396;2023-06-22T00:42:36;99344.25;;;19.88;98.28
73297;BME280;61524;50.938;11.396;2023-06-22T00:45:02;99346.56;;;19.81;99.22
73297;BME280;61524;50.938;11.396;2023-06-22T00:47:27;99332.69;;;19.69;99.53
73297;BME280;61524;50.938;11.396;2023-06-22T00:49:53;99319.72;;;19.66;99.39
73297;BME280;61524;50.938;11.396;2023-06-22T00:52:22;99323.34;;;19.61;97.92
73297;BME280;61524;50.938;11.396;2023-06-22T00:54:52;99321.75;;;19.60;98.30
73297;BME280;61524;50.938;11.396;2023-06-22T00:57:19;99319.41;;;19.54;98.12
73297;BME280;61524;50.938;11.396;2023-06-22T00:59:45;99305.94;;;19.49;98.07
73297;BME280;61524;50.938;11.396;2023-06-22T01:02:11;99296.47;;;19.46;98.03
73297;BME280;61524;50.938;11.396;2023-06-22T01:04:38;99298.69;;;19.44;97.99
73297;BME280;61524;50.938;11.396;2023-06-22T01:09:59;99315.41;;;19.65;97.27
73297;BME280;61524;50.938;11.396;2023-06-22T01:12:30;99314.16;;;19.57;97.05
73297;BME280;61524;50.938;11.396;2023-06-22T01:15:07;99313.34;;;19.57;97.17
73297;BME280;61524;50.938;11.396;2023-06-22T01:17:35;99312.66;;;19.51;97.30
73297;BME280;61524;50.938;11.396;2023-06-22T01:20:02;99323.19;;;19.53;97.22
73297;BME280;61524;50.938;11.396;2023-06-22T01:22:33;99315.34;;;19.51;97.39
73297;BME280;61524;50.938;11.396;2023-06-22T01:25:27;99326.19;;;19.51;97.33
73297;BME280;61524;50.938;11.396;2023-06-22T01:30:49;99322.88;;;19.08;98.20
73297;BME280;61524;50.938;11.396;2023-06-22T01:33:15;99330.28;;;19.02;99.37
73297;BME280;61524;50.938;11.396;2023-06-22T01:35:42;99331.44;;;18.96;99.39
73297;BME280;61524;50.938;11.396;2023-06-22T01:38:08;99339.56;;;18.96;98.45
73297;BME280;61524;50.938;11.396;2023-06-22T01:40:35;99332.84;;;18.94;98.37
73297;BME280;61524;50.938;11.396;2023-06-22T01:43:02;99332.63;;;18.90;98.68
73297;BME280;61524;50.938;11.396;2023-06-22T01:45:28;99321.56;;;18.86;99.04
73297;BME280;61524;50.938;11.396;2023-06-22T01:47:54;99308.53;;;18.88;98.41
73297;BME280;61524;50.938;11.396;2023-06-22T01:50:20;99312.06;;;18.89;98.04
73297;BME280;61524;50.938;11.396;2023-06-22T01:52:46;99309.38;;;18.89;99.24
73297;BME280;61524;50.938;11.396;2023-06-22T01:55:11;99301.09;;;18.80;98.69
73297;BME280;61524;50.938;11.396;2023-06-22T01:57:37;99304.22;;;18.87;97.62
73297;BME280;61524;50.938;11.396;2023-06-22T02:00:04;99304.59;;;18.81;97.68
73297;BME280;61524;50.938;11.396;2023-06-22T02:02:34;99301.09;;;18.80;98.44
73297;BME280;61524;50.938;11.396;2023-06-22T02:05:06;99293.63;;;18.72;98.62
73297;BME280;61524;50.938;11.396;2023-06-22T02:10:28;99291.06;;;18.62;97.90
73297;BME280;61524;50.938;11.396;2023-06-22T02:12:56;99292.88;;;18.48;98.50
73297;BME280;61524;50.938;11.396;2023-06-22T02:15:22;99291.63;;;18.40;98.39
73297;BME280;61524;50.938;11.396;2023-06-22T02:17:48;99299.31;;;18.33;99.21
73297;BME280;61524;50.938;11.396;2023-06-22T02:20:14;99285.34;;;18.26;98.90
73297;BME280;61524;50.938;11.396;2023-06-22T02:22:40;99294.56;;;18.44;99.17
73297;BME280;61524;50.938;11.396;2023-06-22T02:25:06;99303.63;;;18.34;99.78
73297;BME280;61524;50.938;11.396;2023-06-22T02:27:32;99280.31;;;18.19;99.47
73297;BME280;61524;50.938;11.396;2023-06-22T02:29:57;99302.06;;;18.28;99.15
73297;BME280;61524;50.938;11.396;2023-06-22T02:32:23;99292.06;;;18.28;99.16
73297;BME280;61524;50.938;11.396;2023-06-22T02:34:48;99288.91;;;18.21;99.23
73297;BME280;61524;50.938;11.396;2023-06-22T02:37:14;99278.16;;;18.16;99.30
73297;BME280;61524;50.938;11.396;2023-06-22T02:39:40;99285.47;;;18.16;99.88
73297;BME280;61524;50.938;11.396;2023-06-22T02:42:06;99295.13;;;18.22;99.23
73297;BME280;61524;50.938;11.396;2023-06-22T02:44:31;99300.47;;;18.27;98.95
73297;BME280;61524;50.938;11.396;2023-06-22T02:46:56;99297.63;;;18.37;99.23
73297;BME280;61524;50.938;11.396;2023-06-22T02:49:23;99295.50;;;18.34;98.74
73297;BME280;61524;50.938;11.396;2023-06-22T02:51:49;99309.81;;;18.34;98.83
73297;BME280;61524;50.938;11.396;2023-06-22T02:54:14;99306.06;;;18.35;98.42
73297;BME280;61524;50.938;11.396;2023-06-22T02:56:41;99305.44;;;18.39;97.65
73297;BME280;61524;50.938;11.396;2023-06-22T02:59:09;99331.09;;;18.22;98.28
73297;BME280;61524;50.938;11.396;2023-06-22T03:01:36;99325.38;;;18.24;98.73
73297;BME280;61524;50.938;11.396;2023-06-22T03:04:09;99330.78;;;18.24;98.73
73297;BME280;61524;50.938;11.396;2023-06-22T03:06:34;99327.59;;;18.22;99.51
73297;BME280;61524;50.938;11.396;2023-06-22T03:09:04;99341.09;;;18.22;99.85
73297;BME280;61524;50.938;11.396;2023-06-22T03:11:31;99352.22;;;18.20;99.53
73297;BME280;61524;50.938;11.396;2023-06-22T03:13:57;99358.50;;;18.16;99.54
73297;BME280;61524;50.938;11.396;2023-06-22T03:16:22;99372.59;;;18.13;99.67
73297;BME280;61524;50.938;11.396;2023-06-22T03:18:47;99383.75;;;18.06;99.57
73297;BME280;61524;50.938;11.396;2023-06-22T03:21:13;99392.72;;;18.01;99.13
73297;BME280;61524;50.938;11.396;2023-06-22T03:23:40;99390.47;;;17.84;99.55
73297;BME280;61524;50.938;11.396;2023-06-22T03:26:06;99423.25;;;18.02;99.81
73297;BME280;61524;50.938;11.396;2023-06-22T03:28:31;99435.63;;;18.08;99.49
73297;BME280;61524;50.938;11.396;2023-06-22T03:30:57;99444.28;;;18.34;98.48
73297;BME280;61524;50.938;11.396;2023-06-22T03:33:23;99446.09;;;18.44;98.10
73297;BME280;61524;50.938;11.396;2023-06-22T03:35:49;99453.69;;;18.42;99.17
73297;BME280;61524;50.938;11.396;2023-06-22T03:38:16;99464.31;;;18.33;100.00
73297;BME280;61524;50.938;11.396;2023-06-22T03:40:41;99461.28;;;18.40;100.00
73297;BME280;61524;50.938;11.396;2023-06-22T03:43:07;99458.75;;;18.48;99.35
73297;BME280;61524;50.938;11.396;2023-06-22T03:45:32;99447.97;;;18.67;97.90
73297;BME280;61524;50.938;11.396;2023-06-22T03:47:58;99446.72;;;18.59;98.38
73297;BME280;61524;50.938;11.396;2023-06-22T03:50:23;99452.88;;;18.65;99.54
73297;BME280;61524;50.938;11.396;2023-06-22T03:52:49;99437.63;;;18.74;99.28
73297;BME280;61524;50.938;11.396;2023-06-22T03:55:16;99437.84;;;18.78;98.73
73297;BME280;61524;50.938;11.396;2023-06-22T03:57:42;99435.06;;;18.83;99.37
73297;BME280;61524;50.938;11.396;2023-06-22T04:00:08;99427.25;;;18.81;99.09
73297;BME280;61524;50.938;11.396;2023-06-22T04:02:35;99423.56;;;18.72;98.93
73297;BME280;61524;50.938;11.396;2023-06-22T04:05:00;99432.31;;;18.64;98.47
73297;BME280;61524;50.938;11.396;2023-06-22T04:07:25;99425.47;;;18.72;97.82
73297;BME280;61524;50.938;11.396;2023-06-22T04:09:51;99407.56;;;18.76;98.25
73297;BME280;61524;50.938;11.396;2023-06-22T04:12:17;99382.69;;;18.74;98.33
73297;BME280;61524;50.938;11.396;2023-06-22T04:14:42;99377.94;;;18.84;98.40
73297;BME280;61524;50.938;11.396;2023-06-22T04:17:07;99373.91;;;19.01;97.00
73297;BME280;61524;50.938;11.396;2023-06-22T04:19:33;99350.44;;;19.29;95.95
73297;BME280;61524;50.938;11.396;2023-06-22T04:21:58;99354.59;;;19.40;96.11
73297;BME280;61524;50.938;11.396;2023-06-22T04:24:24;99331.16;;;19.30;97.17
73297;BME280;61524;50.938;11.396;2023-06-22T04:26:49;99318.53;;;19.72;96.88
73297;BME280;61524;50.938;11.396;2023-06-22T04:29:20;99294.66;;;20.38;93.94
73297;BME280;61524;50.938;11.396;2023-06-22T04:31:46;99294.47;;;20.48;92.20
73297;BME280;61524;50.938;11.396;2023-06-22T04:34:16;99289.88;;;20.21;93.37
73297;BME280;61524;50.938;11.396;2023-06-22T04:36:42;99293.91;;;20.24;92.30
73297;BME280;61524;50.938;11.396;2023-06-22T04:39:11;99296.44;;;20.06;94.31
73297;BME280;61524;50.938;11.396;2023-06-22T04:41:37;99294.94;;;20.00;95.69
73297;BME280;61524;50.938;11.396;2023-06-22T04:46:34;99292.41;;;20.04;95.55
73297;BME280;61524;50.938;11.396;2023-06-22T04:49:04;99282.38;;;20.04;95.50
73297;BME280;61524;50.938;11.396;2023-06-22T04:51:32;99268.81;;;20.04;94.84
73297;BME280;61524;50.938;11.396;2023-06-22T04:53:57;99267.38;;;20.07;94.48
73297;BME280;61524;50.938;11.396;2023-06-22T04:56:26;99255.25;;;20.04;94.58
73297;BME280;61524;50.938;11.396;2023-06-22T04:58:53;99254.34;;;20.09;96.06
73297;BME280;61524;50.938;11.396;2023-06-22T05:01:21;99243.66;;;20.12;94.72
73297;BME280;61524;50.938;11.396;2023-06-22T05:03:47;99251.31;;;20.10;95.75
73297;BME280;61524;50.938;11.396;2023-06-22T05:06:13;99232.53;;;20.14;96.17
73297;BME280;61524;50.938;11.396;2023-06-22T05:08:40;99230.63;;;20.14;95.89
73297;BME280;61524;50.938;11.396;2023-06-22T05:11:05;99234.41;;;20.27;94.87
73297;BME280;61524;50.938;11.396;2023-06-22T05:13:31;99232.59;;;20.23;94.53
73297;BME280;61524;50.938;11.396;2023-06-22T05:15:56;99243.34;;;20.64;93.64
73297;BME280;61524;50.938;11.396;2023-06-22T05:18:30;99248.94;;;21.35;91.02
73297;BME280;61524;50.938;11.396;2023-06-22T05:20:56;99241.22;;;22.16;88.16
73297;BME280;61524;50.938;11.396;2023-06-22T05:23:21;99251.31;;;23.58;83.19
73297;BME280;61524;50.938;11.396;2023-06-22T05:25:47;99253.19;;;24.25;79.74
73297;BME280;61524;50.938;11.396;2023-06-22T05:28:12;99262.44;;;24.63;78.34
73297;BME280;61524;50.938;11.396;2023-06-22T05:30:38;99266.25;;;24.49;78.04
73297;BME280;61524;50.938;11.396;2023-06-22T05:33:03;99273.72;;;24.31;78.97
73297;BME280;61524;50.938;11.396;2023-06-22T05:35:29;99262.69;;;24.28;79.15
73297;BME280;61524;50.938;11.396;2023-06-22T05:37:55;99264.38;;;24.62;78.35
73297;BME280;61524;50.938;11.396;2023-06-22T05:40:21;99280.31;;;24.30;78.97
73297;BME280;61524;50.938;11.396;2023-06-22T05:42:47;99286.72;;;23.75;81.57
73297;BME280;61524;50.938;11.396;2023-06-22T05:45:12;99275.53;;;24.27;80.31
73297;BME280;61524;50.938;11.396;2023-06-22T05:47:38;99286.97;;;24.21;80.73
73297;BME280;61524;50.938;11.396;2023-06-22T05:50:05;99291.94;;;23.89;81.33
73297;BME280;61524;50.938;11.396;2023-06-22T05:52:32;99293.91;;;23.33;83.36
73297;BME280;61524;50.938;11.396;2023-06-22T05:54:58;99284.81;;;23.12;84.09
73297;BME280;61524;50.938;11.396;2023-06-22T05:57:23;99274.88;;;23.16;83.75
73297;BME280;61524;50.938;11.396;2023-06-22T05:59:49;99277.72;;;23.28;83.87
73297;BME280;61524;50.938;11.396;2023-06-22T06:02:14;99269.38;;;23.24;84.67
73297;BME280;61524;50.938;11.396;2023-06-22T06:04:40;99277.75;;;23.11;85.69
73297;BME280;61524;50.938;11.396;2023-06-22T06:07:05;99286.44;;;22.78;86.12
73297;BME280;61524;50.938;11.396;2023-06-22T06:09:31;99286.56;;;22.82;85.04
73297;BME280;61524;50.938;11.396;2023-06-22T06:11:56;99281.31;;;22.68;85.31
73297;BME280;61524;50.938;11.396;2023-06-22T06:14:22;99296.53;;;22.77;85.06
73297;BME280;61524;50.938;11.396;2023-06-22T06:16:48;99282.41;;;22.75;85.21
73297;BME280;61524;50.938;11.396;2023-06-22T06:19:14;99303.09;;;22.76;85.53
73297;BME280;61524;50.938;11.396;2023-06-22T06:21:39;99301.31;;;22.80;85.25
73297;BME280;61524;50.938;11.396;2023-06-22T06:24:05;99303.91;;;22.94;85.21
73297;BME280;61524;50.938;11.396;2023-06-22T06:26:31;99306.16;;;22.66;85.60
73297;BME280;61524;50.938;11.396;2023-06-22T06:28:59;99296.22;;;23.05;84.07
73297;BME280;61524;50.938;11.396;2023-06-22T06:31:25;99299.25;;;22.95;84.17
73297;BME280;61524;50.938;11.396;2023-06-22T06:33:54;99304.38;;;22.96;84.38
73297;BME280;61524;50.938;11.396;2023-06-22T06:36:20;99299.19;;;23.29;84.17
73297;BME280;61524;50.938;11.396;2023-06-22T06:38:45;99307.22;;;23.35;84.05
73297;BME280;61524;50.938;11.396;2023-06-22T06:41:16;99308.47;;;25.15;79.71
73297;BME280;61524;50.938;11.396;2023-06-22T06:43:42;99306.75;;;24.68;79.29
73297;BME280;61524;50.938;11.396;2023-06-22T06:46:10;99309.38;;;25.64;76.65
73297;BME280;61524;50.938;11.396;2023-06-22T06:48:35;99293.91;;;26.05;75.27
73297;BME280;61524;50.938;11.396;2023-06-22T06:51:01;99288.16;;;24.82;76.91
73297;BME280;61524;50.938;11.396;2023-06-22T06:53:26;99293.03;;;24.77;77.87
73297;BME280;61524;50.938;11.396;2023-06-22T06:55:53;99284.91;;;25.34;75.85
73297;BME280;61524;50.938;11.396;2023-06-22T06:58:18;99288.03;;;26.55;71.85
73297;BME280;61524;50.938;11.396;2023-06-22T07:00:44;99294.78;;;27.58;70.67
73297;BME280;61524;50.938;11.396;2023-06-22T07:03:10;99296.78;;;28.08;68.51
73297;BME280;61524;50.938;11.396;2023-06-22T07:05:35;99290.72;;;26.95;70.21
73297;BME280;61524;50.938;11.396;2023-06-22T07:08:01;99291.50;;;25.91;73.59
73297;BME280;61524;50.938;11.396;2023-06-22T07:10:28;99278.38;;;25.97;74.52
73297;BME280;61524;50.938;11.396;2023-06-22T07:12:53;99282.03;;;26.01;74.54
73297;BME280;61524;50.938;11.396;2023-06-22T07:15:18;99280.16;;;26.54;74.27
73297;BME280;61524;50.938;11.396;2023-06-22T07:17:44;99300.06;;;25.89;74.87
73297;BME280;61524;50.938;11.396;2023-06-22T07:20:10;99280.44;;;26.12;75.58
73297;BME280;61524;50.938;11.396;2023-06-22T07:22:38;99278.00;;;27.31;72.50
73297;BME280;61524;50.938;11.396;2023-06-22T07:25:04;99283.91;;;26.89;73.36
73297;BME280;61524;50.938;11.396;2023-06-22T07:27:35;99281.56;;;27.63;71.50
73297;BME280;61524;50.938;11.396;2023-06-22T07:30:03;99267.75;;;27.91;70.07
73297;BME280;61524;50.938;11.396;2023-06-22T07:32:29;99261.78;;;28.21;68.47
73297;BME280;61524;50.938;11.396;2023-06-22T07:34:54;99257.34;;;28.90;67.13
73297;BME280;61524;50.938;11.396;2023-06-22T07:37:20;99258.00;;;28.64;67.18
73297;BME280;61524;50.938;11.396;2023-06-22T07:39:46;99258.28;;;28.78;67.17
73297;BME280;61524;50.938;11.396;2023-06-22T07:42:11;99257.44;;;28.74;67.89
73297;BME280;61524;50.938;11.396;2023-06-22T07:44:37;99254.03;;;28.42;67.49
73297;BME280;61524;50.938;11.396;2023-06-22T07:47:02;99259.94;;;28.83;67.22
73297;BME280;61524;50.938;11.396;2023-06-22T07:49:28;99259.06;;;29.64;65.00
73297;BME280;61524;50.938;11.396;2023-06-22T07:51:54;99251.28;;;29.46;65.11
73297;BME280;61524;50.938;11.396;2023-06-22T07:54:19;99249.25;;;30.46;62.27
73297;BME280;61524;50.938;11.396;2023-06-22T07:56:46;99244.03;;;30.11;62.46
73297;BME280;61524;50.938;11.396;2023-06-22T07:59:11;99253.69;;;29.71;64.31
73297;BME280;61524;50.938;11.396;2023-06-22T08:01:36;99243.94;;;28.89;65.48
73297;BME280;61524;50.938;11.396;2023-06-22T08:04:02;99242.94;;;30.42;61.07
73297;BME280;61524;50.938;11.396;2023-06-22T08:06:30;99236.81;;;30.59;58.97
73297;BME280;61524;50.938;11.396;2023-06-22T08:08:55;99242.78;;;30.04;63.08
73297;BME280;61524;50.938;11.396;2023-06-22T08:11:22;99226.66;;;29.80;61.86
73297;BME280;61524;50.938;11.396;2023-06-22T08:13:49;99226.94;;;29.71;63.07
73297;BME280;61524;50.938;11.396;2023-06-22T08:16:15;99229.56;;;28.95;65.97
73297;BME280;61524;50.938;11.396;2023-06-22T08:18:40;99222.19;;;28.41;65.77
73297;BME280;61524;50.938;11.396;2023-06-22T08:21:06;99219.47;;;28.25;65.70
73297;BME280;61524;50.938;11.396;2023-06-22T08:23:31;99228.94;;;28.28;66.00
73297;BME280;61524;50.938;11.396;2023-06-22T08:25:56;99221.06;;;27.91;67.09
73297;BME280;61524;50.938;11.396;2023-06-22T08:28:22;99229.63;;;28.06;65.84
73297;BME280;61524;50.938;11.396;2023-06-22T08:30:47;99227.88;;;28.52;64.82
73297;BME280;61524;50.938;11.396;2023-06-22T08:33:13;99220.78;;;28.70;66.35
73297;BME280;61524;50.938;11.396;2023-06-22T08:35:38;99228.41;;;29.19;60.10
73297;BME280;61524;50.938;11.396;2023-06-22T08:38:04;99226.03;;;29.41;59.25
73297;BME280;61524;50.938;11.396;2023-06-22T08:40:29;99213.03;;;29.64;60.28
73297;BME280;61524;50.938;11.396;2023-06-22T08:42:55;99204.00;;;29.64;59.19
73297;BME280;61524;50.938;11.396;2023-06-22T08:45:21;99199.69;;;29.43;59.63
73297;BME280;61524;50.938;11.396;2023-06-22T08:47:46;99206.94;;;29.51;57.20
73297;BME280;61524;50.938;11.396;2023-06-22T08:50:12;99198.59;;;29.71;58.40
73297;BME280;61524;50.938;11.396;2023-06-22T08:52:39;99201.34;;;29.48;58.20
73297;BME280;61524;50.938;11.396;2023-06-22T08:55:07;99198.00;;;29.35;56.78
73297;BME280;61524;50.938;11.396;2023-06-22T08:57:33;99194.94;;;29.63;56.23
73297;BME280;61524;50.938;11.396;2023-06-22T08:59:58;99192.03;;;29.79;59.60
73297;BME280;61524;50.938;11.396;2023-06-22T09:02:27;99203.31;;;29.47;56.73
73297;BME280;61524;50.938;11.396;2023-06-22T09:04:57;99193.72;;;29.61;55.92
73297;BME280;61524;50.938;11.396;2023-06-22T09:07:23;99189.16;;;29.98;57.64
73297;BME280;61524;50.938;11.396;2023-06-22T09:09:50;99190.09;;;30.10;59.50
73297;BME280;61524;50.938;11.396;2023-06-22T09:12:15;99187.78;;;30.12;57.52
73297;BME280;61524;50.938;11.396;2023-06-22T09:14:41;99176.16;;;30.59;56.99
73297;BME280;61524;50.938;11.396;2023-06-22T09:17:06;99191.00;;;30.17;56.09
73297;BME280;61524;50.938;11.396;2023-06-22T09:19:32;99182.53;;;30.03;55.90
73297;BME280;61524;50.938;11.396;2023-06-22T09:21:58;99174.78;;;30.12;56.02
73297;BME280;61524;50.938;11.396;2023-06-22T09:24:23;99170.31;;;29.74;57.28
73297;BME280;61524;50.938;11.396;2023-06-22T09:26:49;99178.00;;;30.18;55.49
73297;BME280;61524;50.938;11.396;2023-06-22T09:29:15;99165.28;;;30.10;55.59
73297;BME280;61524;50.938;11.396;2023-06-22T09:31:41;99170.06;;;30.13;56.30
73297;BME280;61524;50.938;11.396;2023-06-22T09:34:06;99171.31;;;29.62;55.61
73297;BME280;61524;50.938;11.396;2023-06-22T09:36:32;99178.78;;;30.15;54.48
73297;BME280;61524;50.938;11.396;2023-06-22T09:38:57;99162.34;;;30.59;55.66
73297;BME280;61524;50.938;11.396;2023-06-22T09:41:24;99165.16;;;30.29;57.06
73297;BME280;61524;50.938;11.396;2023-06-22T09:43:49;99155.69;;;30.64;56.24
73297;BME280;61524;50.938;11.396;2023-06-22T09:46:16;99133.13;;;29.61;55.58
73297;BME280;61524;50.938;11.396;2023-06-22T09:48:41;99141.47;;;29.94;55.66
73297;BME280;61524;50.938;11.396;2023-06-22T09:51:07;99136.16;;;30.09;54.10
73297;BME280;61524;50.938;11.396;2023-06-22T09:53:32;99150.25;;;30.03;54.48
73297;BME280;61524;50.938;11.396;2023-06-22T09:56:00;99149.59;;;29.57;55.74
73297;BME280;61524;50.938;11.396;2023-06-22T09:58:25;99147.88;;;29.22;55.96
73297;BME280;61524;50.938;11.396;2023-06-22T10:00:51;99134.91;;;29.23;56.82
73297;BME280;61524;50.938;11.396;2023-06-22T10:03:16;99130.72;;;29.59;56.60
73297;BME280;61524;50.938;11.396;2023-06-22T10:05:42;99132.25;;;29.83;56.77
73297;BME280;61524;50.938;11.396;2023-06-22T10:08:07;99133.91;;;30.18;53.86
73297;BME280;61524;50.938;11.396;2023-06-22T10:10:35;99132.41;;;30.24;55.19
73297;BME280;61524;50.938;11.396;2023-06-22T10:13:07;99129.19;;;30.18;54.01
73297;BME280;61524;50.938;11.396;2023-06-22T10:15:34;99135.53;;;29.92;56.48
73297;BME280;61524;50.938;11.396;2023-06-22T10:17:59;99118.06;;;30.82;57.77
73297;BME280;61524;50.938;11.396;2023-06-22T10:20:25;99116.44;;;30.77;54.20
73297;BME280;61524;50.938;11.396;2023-06-22T10:22:51;99104.53;;;31.14;53.85
73297;BME280;61524;50.938;11.396;2023-06-22T10:25:17;99103.31;;;31.08;52.24
73297;BME280;61524;50.938;11.396;2023-06-22T10:27:42;99106.59;;;31.24;53.08
73297;BME280;61524;50.938;11.396;2023-06-22T10:30:09;99106.91;;;31.16;55.45
73297;BME280;61524;50.938;11.396;2023-06-22T10:32:35;99102.09;;;31.57;53.77
73297;BME280;61524;50.938;11.396;2023-06-22T10:35:02;99110.13;;;31.25;52.19
73297;BME280;61524;50.938;11.396;2023-06-22T10:37:27;99110.47;;;31.16;53.60
73297;BME280;61524;50.938;11.396;2023-06-22T10:39:52;99108.47;;;31.65;51.53
73297;BME280;61524;50.938;11.396;2023-06-22T10:42:18;99091.72;;;31.40;51.11
73297;BME280;61524;50.938;11.396;2023-06-22T10:44:43;99087.22;;;31.21;52.06
73297;BME280;61524;50.938;11.396;2023-06-22T10:47:10;99091.97;;;31.24;51.61
73297;BME280;61524;50.938;11.396;2023-06-22T10:49:40;99094.66;;;31.68;50.34
73297;BME280;61524;50.938;11.396;2023-06-22T10:52:09;99086.75;;;31.67;52.85
73297;BME280;61524;50.938;11.396;2023-06-22T10:54:35;99089.03;;;31.50;51.80
73297;BME280;61524;50.938;11.396;2023-06-22T10:57:02;99082.63;;;31.35;52.42
73297;BME280;61524;50.938;11.396;2023-06-22T10:59:28;99089.78;;;31.44;51.01
73297;BME280;61524;50.938;11.396;2023-06-22T11:01:55;99080.63;;;31.29;51.79
73297;BME280;61524;50.938;11.396;2023-06-22T11:04:21;99081.81;;;31.31;52.43
73297;BME280;61524;50.938;11.396;2023-06-22T11:06:48;99083.06;;;30.93;52.23
73297;BME280;61524;50.938;11.396;2023-06-22T11:09:13;99094.22;;;31.59;52.17
73297;BME280;61524;50.938;11.396;2023-06-22T11:11:44;99083.88;;;31.45;51.18
73297;BME280;61524;50.938;11.396;2023-06-22T11:14:09;99076.72;;;31.37;50.84
73297;BME280;61524;50.938;11.396;2023-06-22T11:16:35;99080.00;;;31.60;52.92
73297;BME280;61524;50.938;11.396;2023-06-22T11:19:00;99066.06;;;30.88;51.72
73297;BME280;61524;50.938;11.396;2023-06-22T11:21:25;99055.19;;;31.09;52.47
73297;BME280;61524;50.938;11.396;2023-06-22T11:23:51;99058.34;;;31.73;52.98
73297;BME280;61524;50.938;11.396;2023-06-22T11:26:16;99061.91;;;31.74;50.66
73297;BME280;61524;50.938;11.396;2023-06-22T11:28:42;99052.88;;;31.80;50.78
73297;BME280;61524;50.938;11.396;2023-06-22T11:31:07;99050.34;;;31.43;53.10
73297;BME280;61524;50.938;11.396;2023-06-22T11:33:33;99043.53;;;31.30;51.87
73297;BME280;61524;50.938;11.396;2023-06-22T11:35:58;99055.09;;;31.53;52.52
73297;BME280;61524;50.938;11.396;2023-06-22T11:38:23;99045.44;;;31.88;53.26
73297;BME280;61524;50.938;11.396;2023-06-22T11:40:49;99043.22;;;30.87;52.50
73297;BME280;61524;50.938;11.396;2023-06-22T11:43:14;99035.25;;;30.75;53.05
73297;BME280;61524;50.938;11.396;2023-06-22T11:45:40;99027.78;;;31.34;52.23
73297;BME280;61524;50.938;11.396;2023-06-22T11:48:05;99032.66;;;31.62;51.50
73297;BME280;61524;50.938;11.396;2023-06-22T11:50:31;99029.66;;;32.06;52.85
73297;BME280;61524;50.938;11.396;2023-06-22T11:53:01;99020.59;;;32.02;50.96
73297;BME280;61524;50.938;11.396;2023-06-22T11:55:26;99020.22;;;32.14;52.30
73297;BME280;61524;50.938;11.396;2023-06-22T11:57:57;99022.66;;;32.55;49.61
73297;BME280;61524;50.938;11.396;2023-06-22T12:00:26;98999.69;;;32.33;50.82
73297;BME280;61524;50.938;11.396;2023-06-22T12:02:51;99009.13;;;32.00;50.64
73297;BME280;61524;50.938;11.396;2023-06-22T12:05:20;98999.88;;;31.57;51.51
73297;BME280;61524;50.938;11.396;2023-06-22T12:07:49;98996.38;;;31.74;51.30
73297;BME280;61524;50.938;11.396;2023-06-22T12:10:16;98999.25;;;31.99;50.56
73297;BME280;61524;50.938;11.396;2023-06-22T12:12:42;98987.75;;;31.83;51.11
73297;BME280;61524;50.938;11.396;2023-06-22T12:15:09;98977.16;;;32.10;49.39
73297;BME280;61524;50.938;11.396;2023-06-22T12:17:35;98968.22;;;31.36;51.12
73297;BME280;61524;50.938;11.396;2023-06-22T12:20:00;98978.72;;;32.04;52.35
73297;BME280;61524;50.938;11.396;2023-06-22T12:22:26;98968.31;;;31.61;51.62
73297;BME280;61524;50.938;11.396;2023-06-22T12:24:52;98959.00;;;32.16;52.52
73297;BME280;61524;50.938;11.396;2023-06-22T12:27:17;98959.00;;;32.09;51.97
73297;BME280;61524;50.938;11.396;2023-06-22T12:29:46;98952.56;;;31.80;50.84
73297;BME280;61524;50.938;11.396;2023-06-22T12:32:11;98951.88;;;32.15;48.27
73297;BME280;61524;50.938;11.396;2023-06-22T12:34:42;98939.63;;;32.09;50.10
73297;BME280;61524;50.938;11.396;2023-06-22T12:37:07;98938.03;;;31.90;48.80
73297;BME280;61524;50.938;11.396;2023-06-22T12:39:33;98950.28;;;31.93;50.45
73297;BME280;61524;50.938;11.396;2023-06-22T12:41:58;98939.22;;;31.93;51.72
73297;BME280;61524;50.938;11.396;2023-06-22T12:44:23;98934.09;;;32.12;51.18
73297;BME280;61524;50.938;11.396;2023-06-22T12:46:49;98935.28;;;32.33;51.13
73297;BME280;61524;50.938;11.396;2023-06-22T12:49:14;98938.50;;;32.35;52.68
73297;BME280;61524;50.938;11.396;2023-06-22T12:51:40;98921.47;;;32.15;50.93
73297;BME280;61524;50.938;11.396;2023-06-22T12:54:07;98922.63;;;31.96;50.39
73297;BME280;61524;50.938;11.396;2023-06-22T12:56:33;98924.22;;;32.15;52.52